Time;durP1;ratioP1;P1;durP2;ratioP2;P2;SDS_P1;SDS_P2;PMS_P1;PMS_P2;Temp;Humidity;BMP_temperature;BMP_pressure;BME280_temperature;BME280_humidity;BME280_pressure;Samples;Min_cycle;Max_cycle;Signal;HPM_P1;HPM_P2
2023/12/27 00:00:35;;;;;;;2.90;1.33;;;;;;;12.38;55.80;98037.91;5021586;28;20238;-72
2023/12/27 00:03:00;;;;;;;2.73;1.57;;;;;;;12.42;55.76;98044.56;5046040;28;20215;-71
2023/12/27 00:05:26;;;;;;;2.87;1.63;;;;;;;12.43;55.58;98048.00;5035722;28;20525;-71
2023/12/27 00:07:51;;;;;;;4.27;1.80;;;;;;;12.46;55.60;98062.69;5027179;28;20316;-71
2023/12/27 00:10:17;;;;;;;3.40;1.50;;;;;;;12.41;55.82;98049.97;5024376;28;20270;-71
2023/12/27 00:12:42;;;;;;;4.50;1.47;;;;;;;12.47;55.81;98043.31;5019882;28;20299;-71
2023/12/27 00:15:08;;;;;;;4.13;1.77;;;;;;;12.46;55.88;98049.53;5038472;28;20201;-71
2023/12/27 00:17:34;;;;;;;3.40;1.50;;;;;;;12.46;55.63;98044.28;5025614;28;20238;-71
2023/12/27 00:19:59;;;;;;;3.67;1.70;;;;;;;12.46;55.53;98036.38;5023954;28;20672;-72
2023/12/27 00:22:25;;;;;;;4.10;2.10;;;;;;;12.42;55.98;98028.78;5036253;28;20201;-71
2023/12/27 00:24:50;;;;;;;3.50;1.97;;;;;;;12.45;55.83;98035.53;5029429;28;20180;-71
2023/12/27 00:27:16;;;;;;;3.40;2.00;;;;;;;12.51;55.75;98034.13;5021242;28;20730;-71
2023/12/27 00:29:41;;;;;;;8.10;2.40;;;;;;;12.50;55.80;98043.84;5030455;28;20230;-70
2023/12/27 00:32:09;;;;;;;11.00;5.67;;;;;;;12.49;55.90;98047.44;5043158;28;20202;-72
2023/12/27 00:34:35;;;;;;;7.13;3.40;;;;;;;12.45;56.09;98048.69;5023659;28;20184;-71
2023/12/27 00:37:00;;;;;;;5.27;2.07;;;;;;;12.42;55.76;98041.94;5040634;28;20491;-71
2023/12/27 00:39:26;;;;;;;4.97;2.27;;;;;;;12.48;55.79;98029.16;5034970;28;20424;-70
2023/12/27 00:41:52;;;;;;;5.50;1.43;;;;;;;12.43;55.70;98019.94;5031656;28;20207;-71
2023/12/27 00:44:18;;;;;;;2.60;1.60;;;;;;;12.43;56.21;98022.56;5037750;28;20741;-70
2023/12/27 00:46:43;;;;;;;7.70;2.00;;;;;;;12.42;56.25;98020.91;5009143;28;20431;-71
2023/12/27 00:49:09;;;;;;;3.47;1.80;;;;;;;12.46;55.97;98016.16;5038840;28;20582;-71
2023/12/27 00:51:34;;;;;;;3.70;2.23;;;;;;;12.49;55.87;98015.03;5024146;28;20298;-72
2023/12/27 00:53:59;;;;;;;4.03;2.00;;;;;;;12.48;56.08;98022.13;4989140;28;20180;-70
2023/12/27 00:56:25;;;;;;;6.20;1.90;;;;;;;12.48;56.25;98018.66;5031992;28;20218;-72
2023/12/27 00:58:51;;;;;;;3.70;2.03;;;;;;;12.46;56.01;98020.63;5024149;28;20276;-71
2023/12/27 01:01:17;;;;;;;3.10;2.13;;;;;;;12.48;55.93;98021.28;5027333;28;20581;-71
2023/12/27 01:03:42;;;;;;;7.60;2.67;;;;;;;12.50;55.77;98030.69;5037086;28;20423;-71
2023/12/27 01:06:08;;;;;;;5.93;2.70;;;;;;;12.49;55.96;98034.28;5019078;28;20186;-71
2023/12/27 01:08:34;;;;;;;4.17;2.73;;;;;;;12.39;55.81;98033.50;5031694;28;20188;-72
2023/12/27 01:11:00;;;;;;;3.73;2.10;;;;;;;12.38;56.38;98032.66;5027207;28;20963;-71
2023/12/27 01:13:25;;;;;;;5.40;2.67;;;;;;;12.36;55.86;98026.72;5033621;28;20241;-70
2023/12/27 01:15:50;;;;;;;2.70;2.10;;;;;;;12.38;56.24;98016.88;5025745;28;20762;-70
2023/12/27 01:18:16;;;;;;;3.77;1.60;;;;;;;12.33;56.45;98021.75;5033368;28;20291;-71
2023/12/27 01:20:41;;;;;;;5.87;1.97;;;;;;;12.32;55.90;98028.00;5024286;28;20303;-71
2023/12/27 01:23:07;;;;;;;3.83;2.00;;;;;;;12.28;56.31;98034.50;5031201;28;20313;-70
2023/12/27 01:25:32;;;;;;;5.20;2.20;;;;;;;12.29;56.28;98026.44;5027924;28;20524;-71
2023/12/27 01:27:58;;;;;;;2.93;1.90;;;;;;;12.25;56.73;98025.09;5017444;28;20240;-71
2023/12/27 01:30:23;;;;;;;4.60;1.77;;;;;;;12.20;56.54;98024.69;5027216;28;20248;-72
2023/12/27 01:32:48;;;;;;;2.50;1.80;;;;;;;12.16;57.10;98027.75;5016951;28;20349;-71
2023/12/27 01:35:15;;;;;;;3.87;2.47;;;;;;;12.10;57.13;98026.53;5034190;28;20175;-71
2023/12/27 01:37:40;;;;;;;3.60;2.20;;;;;;;12.13;57.51;98037.56;5028661;28;20180;-71
2023/12/27 01:40:06;;;;;;;3.73;1.90;;;;;;;12.12;57.53;98035.09;5025726;28;20524;-71
2023/12/27 01:42:33;;;;;;;3.90;2.00;;;;;;;12.05;57.33;98034.84;5036975;28;20242;-71
2023/12/27 01:44:59;;;;;;;3.20;2.03;;;;;;;11.99;57.90;98030.13;5018524;28;20645;-71
2023/12/27 01:47:25;;;;;;;2.03;1.67;;;;;;;11.97;57.64;98030.25;5037310;28;20429;-73
2023/12/27 01:49:51;;;;;;;4.03;1.83;;;;;;;12.10;57.34;98029.97;5027008;28;20183;-71
2023/12/27 01:52:16;;;;;;;2.20;1.60;;;;;;;12.11;57.22;98026.38;5017380;28;20207;-72
2023/12/27 01:54:42;;;;;;;2.90;1.80;;;;;;;12.11;56.99;98029.00;5025897;28;20904;-70
2023/12/27 01:57:08;;;;;;;3.83;1.87;;;;;;;12.11;57.32;98025.56;5023135;28;20696;-70
2023/12/27 01:59:33;;;;;;;5.57;1.73;;;;;;;12.13;57.01;98024.44;5028159;28;20221;-71
2023/12/27 02:01:59;;;;;;;4.30;1.63;;;;;;;12.10;56.95;98013.38;5025096;28;20192;-70
2023/12/27 02:04:24;;;;;;;3.63;1.80;;;;;;;12.16;57.32;98025.13;5042023;28;20203;-70
2023/12/27 02:06:51;;;;;;;18.83;9.80;;;;;;;12.10;57.22;98032.59;5040270;28;20222;-70
2023/12/27 02:09:16;;;;;;;20.87;8.93;;;;;;;12.10;57.18;98024.72;5036047;28;20690;-71
2023/12/27 02:11:42;;;;;;;19.90;10.17;;;;;;;12.09;57.41;98030.97;5041793;28;20461;-70
2023/12/27 02:14:08;;;;;;;13.73;6.40;;;;;;;12.00;57.10;98036.22;5032140;28;20720;-70
2023/12/27 02:16:34;;;;;;;7.43;2.63;;;;;;;11.87;57.52;98025.97;5041515;28;20199;-70
2023/12/27 02:19:01;;;;;;;3.10;2.03;;;;;;;11.86;57.62;98030.41;5038876;28;20180;-71
2023/12/27 02:21:28;;;;;;;3.07;2.07;;;;;;;11.91;57.27;98019.47;5035866;28;20435;-70
2023/12/27 02:23:58;;;;;;;3.23;1.63;;;;;;;11.92;57.61;98015.88;5033543;28;20435;-71
2023/12/27 02:26:23;;;;;;;4.53;1.50;;;;;;;11.88;57.39;98015.34;5023594;28;20429;-70
2023/12/27 02:28:49;;;;;;;6.87;2.03;;;;;;;11.91;57.44;98012.41;5043324;28;20441;-71
2023/12/27 02:31:14;;;;;;;5.37;2.20;;;;;;;11.97;57.55;98022.38;5043884;28;20671;-71
2023/12/27 02:33:43;;;;;;;14.40;8.30;;;;;;;11.92;57.46;98021.94;5034056;28;20194;-70
2023/12/27 02:36:10;;;;;;;7.97;5.13;;;;;;;11.81;57.64;98017.69;5035225;28;20186;-69
2023/12/27 02:38:35;;;;;;;5.13;2.30;;;;;;;11.78;57.75;98014.53;5032993;28;20433;-71
2023/12/27 02:41:02;;;;;;;7.80;2.40;;;;;;;11.78;58.03;98007.47;5001892;28;20525;-71
2023/12/27 02:43:27;;;;;;;3.37;2.10;;;;;;;11.83;57.66;98007.88;5030223;28;20172;-72
2023/12/27 02:45:53;;;;;;;8.90;2.30;;;;;;;11.87;57.65;98015.47;5029383;28;20457;-70
2023/12/27 02:48:18;;;;;;;5.30;2.00;;;;;;;11.76;57.53;98011.22;5039803;28;20179;-70
2023/12/27 02:50:44;;;;;;;7.00;1.97;;;;;;;11.59;58.42;98008.31;5027448;28;20657;-71
2023/12/27 02:53:12;;;;;;;2.30;1.80;;;;;;;11.58;58.52;98005.84;5027348;28;20212;-72
2023/12/27 02:55:38;;;;;;;2.83;2.00;;;;;;;11.59;58.00;97997.00;5029574;28;20184;-71
2023/12/27 02:58:03;;;;;;;4.70;2.10;;;;;;;11.53;58.30;97999.19;5032677;28;20441;-72
2023/12/27 03:00:34;;;;;;;2.10;1.80;;;;;;;11.56;58.39;97998.09;5040011;28;20191;-71
2023/12/27 03:03:01;;;;;;;3.87;2.10;;;;;;;11.61;58.24;98001.13;5039898;28;20207;-72
2023/12/27 03:05:26;;;;;;;6.27;2.43;;;;;;;11.62;58.34;97996.69;5031182;28;20827;-73
2023/12/27 03:07:51;;;;;;;3.63;2.17;;;;;;;11.64;58.56;97992.97;5042468;28;20517;-72
2023/12/27 03:10:17;;;;;;;2.90;1.70;;;;;;;11.69;57.90;97987.31;5041048;28;20214;-72
2023/12/27 03:12:42;;;;;;;3.20;2.03;;;;;;;11.69;58.23;97992.56;5041766;28;20756;-71
2023/12/27 03:15:08;;;;;;;3.70;2.07;;;;;;;11.65;58.42;97985.91;5039751;28;20271;-70
2023/12/27 03:17:33;;;;;;;5.20;1.90;;;;;;;11.64;58.53;97984.25;5029267;28;20187;-70
2023/12/27 03:19:59;;;;;;;3.10;1.83;;;;;;;11.72;58.36;97984.38;5041961;28;20187;-71
2023/12/27 03:22:24;;;;;;;4.10;2.20;;;;;;;11.75;58.19;97980.66;5033318;28;20287;-70
2023/12/27 03:24:50;;;;;;;3.63;2.37;;;;;;;11.71;58.25;97980.13;5033334;28;20715;-71
2023/12/27 03:27:15;;;;;;;6.90;2.43;;;;;;;11.66;58.34;97975.25;5040967;28;20279;-71
2023/12/27 03:29:41;;;;;;;2.53;1.80;;;;;;;11.63;58.76;97977.34;5040746;28;20187;-71
2023/12/27 03:32:06;;;;;;;4.50;2.33;;;;;;;11.61;58.50;97974.03;5042790;28;20883;-71
2023/12/27 03:34:32;;;;;;;7.30;2.47;;;;;;;11.63;58.67;97987.84;5035431;28;20218;-71
2023/12/27 03:36:57;;;;;;;3.30;2.50;;;;;;;11.69;58.42;97971.56;5045248;28;20228;-70
2023/12/27 03:39:23;;;;;;;3.20;2.50;;;;;;;11.70;58.58;97980.25;5039330;28;20187;-70
2023/12/27 03:41:49;;;;;;;2.80;2.30;;;;;;;11.69;58.26;97987.31;5017205;28;20206;-71
2023/12/27 03:44:14;;;;;;;6.70;2.47;;;;;;;11.66;58.40;97987.59;5037774;28;20188;-71
2023/12/27 03:46:40;;;;;;;7.73;2.50;;;;;;;11.67;58.31;97976.13;5034180;28;20191;-71
2023/12/27 03:49:05;;;;;;;3.67;2.53;;;;;;;11.68;58.80;97983.03;5028179;28;20616;-71
2023/12/27 03:51:31;;;;;;;4.77;2.27;;;;;;;11.71;58.26;97977.50;5024436;28;20211;-71
2023/12/27 03:53:56;;;;;;;3.77;1.93;;;;;;;11.71;58.30;97972.25;5031207;28;20192;-69
2023/12/27 03:56:22;;;;;;;5.50;1.97;;;;;;;11.77;58.66;97976.09;5027032;28;20184;-71
2023/12/27 03:58:47;;;;;;;3.27;1.80;;;;;;;11.81;58.48;97980.09;5041754;28;20187;-71
2023/12/27 04:01:13;;;;;;;3.03;1.83;;;;;;;11.83;58.09;97968.50;5025307;28;20676;-69
2023/12/27 04:03:40;;;;;;;9.40;2.30;;;;;;;11.84;58.01;97977.19;5036194;28;20187;-70
2023/12/27 04:06:05;;;;;;;3.00;2.00;;;;;;;11.75;58.43;97972.78;5025296;28;20658;-72
2023/12/27 04:08:31;;;;;;;4.30;1.90;;;;;;;11.74;58.23;97969.31;5030341;28;20444;-71
2023/12/27 04:10:56;;;;;;;3.90;2.90;;;;;;;11.70;58.56;97967.97;5031876;28;20234;-70
2023/12/27 04:13:22;;;;;;;4.10;2.00;;;;;;;11.63;58.62;97970.31;5031254;28;20219;-71
2023/12/27 04:15:47;;;;;;;4.50;2.60;;;;;;;11.61;58.71;97958.28;5039558;28;20656;-70
2023/12/27 04:18:13;;;;;;;4.47;2.10;;;;;;;11.67;58.33;97958.53;5038625;28;20271;-71
2023/12/27 04:20:38;;;;;;;2.90;2.20;;;;;;;11.72;58.31;97954.69;5034548;28;20266;-71
2023/12/27 04:23:03;;;;;;;2.80;1.90;;;;;;;11.78;58.09;97949.69;5029858;28;20326;-71
2023/12/27 04:25:29;;;;;;;3.03;2.17;;;;;;;11.79;58.05;97947.88;5020902;28;20215;-71
2023/12/27 04:27:54;;;;;;;5.53;2.37;;;;;;;11.82;58.30;97945.81;5027440;28;20188;-70
2023/12/27 04:30:20;;;;;;;4.77;1.90;;;;;;;11.83;58.14;97942.22;5030844;28;20645;-71
2023/12/27 04:32:45;;;;;;;4.93;2.43;;;;;;;11.74;58.69;97939.63;5026770;28;20746;-71
2023/12/27 04:35:11;;;;;;;5.33;2.70;;;;;;;11.75;58.30;97925.50;5031454;28;20580;-70
2023/12/27 04:37:36;;;;;;;5.00;2.30;;;;;;;11.76;58.71;97919.28;5031726;28;20245;-72
2023/12/27 04:40:02;;;;;;;2.70;2.00;;;;;;;11.77;58.44;97924.41;5011470;28;20180;-71
2023/12/27 04:42:27;;;;;;;5.50;2.40;;;;;;;11.74;58.72;97919.41;5019970;28;20773;-71
2023/12/27 04:44:53;;;;;;;4.00;2.20;;;;;;;11.73;58.43;97925.63;5027390;28;20294;-72
2023/12/27 04:47:18;;;;;;;9.00;2.50;;;;;;;11.75;58.34;97922.91;5025974;28;20687;-71
2023/12/27 04:49:44;;;;;;;5.73;2.57;;;;;;;11.80;58.59;97926.75;5035972;28;20690;-72
2023/12/27 04:52:09;;;;;;;4.87;2.30;;;;;;;11.81;58.37;97930.19;5026802;28;20256;-72
2023/12/27 04:54:35;;;;;;;7.87;2.70;;;;;;;11.84;58.19;97932.53;5038616;28;20194;-71
2023/12/27 04:57:00;;;;;;;5.03;2.87;;;;;;;11.82;58.21;97930.06;5036298;28;20716;-72
2023/12/27 04:59:26;;;;;;;3.10;2.30;;;;;;;11.85;58.03;97934.19;5022955;28;20292;-71
2023/12/27 05:01:53;;;;;;;3.17;2.20;;;;;;;11.81;58.08;97932.81;5033552;28;20195;-72
2023/12/27 05:04:18;;;;;;;5.30;2.73;;;;;;;11.66;58.31;97942.94;5038334;28;20455;-71
2023/12/27 05:06:44;;;;;;;6.63;2.17;;;;;;;11.60;58.30;97941.72;5035665;28;20461;-72
2023/12/27 05:09:09;;;;;;;4.30;3.10;;;;;;;11.62;58.46;97952.06;5045137;28;20183;-72
2023/12/27 05:11:35;;;;;;;5.33;2.80;;;;;;;11.60;58.14;97944.34;5024554;28;20720;-72
2023/12/27 05:14:00;;;;;;;5.67;2.80;;;;;;;11.50;58.24;97944.34;5042498;28;20190;-71
2023/12/27 05:16:26;;;;;;;9.77;2.33;;;;;;;11.48;57.81;97943.66;5034925;28;20291;-71
2023/12/27 05:18:51;;;;;;;9.63;2.80;;;;;;;11.40;58.66;97942.72;5040105;28;20183;-71
2023/12/27 05:21:18;;;;;;;4.40;2.97;;;;;;;11.23;58.68;97934.56;5041302;28;20572;-71
2023/12/27 05:23:43;;;;;;;7.97;2.90;;;;;;;11.18;58.99;97942.00;5042499;28;20176;-72
2023/12/27 05:26:09;;;;;;;4.87;2.80;;;;;;;11.11;59.05;97946.97;5034030;28;20526;-73
2023/12/27 05:28:34;;;;;;;6.33;3.20;;;;;;;11.22;58.92;97932.91;5014490;28;20187;-70
2023/12/27 05:31:00;;;;;;;5.70;3.43;;;;;;;11.21;58.91;97936.50;5044238;28;20207;-70
2023/12/27 05:33:25;;;;;;;5.53;3.10;;;;;;;11.11;59.39;97944.34;5039000;28;20246;-71
2023/12/27 05:35:52;;;;;;;5.80;3.03;;;;;;;11.14;59.48;97941.47;5028143;28;21003;-70
2023/12/27 05:38:17;;;;;;;4.43;3.47;;;;;;;11.16;59.27;97939.53;5033842;28;20190;-70
2023/12/27 05:40:43;;;;;;;7.13;3.20;;;;;;;11.13;59.07;97945.06;5026775;28;20430;-70
2023/12/27 05:43:08;;;;;;;4.70;2.73;;;;;;;11.16;59.37;97950.03;5039069;28;20222;-71
2023/12/27 05:45:34;;;;;;;8.20;3.27;;;;;;;11.13;58.97;97945.06;5039679;28;22124;-71
2023/12/27 05:47:59;;;;;;;5.13;2.80;;;;;;;11.09;59.19;97945.47;5037723;28;20700;-70
2023/12/27 05:50:25;;;;;;;4.97;2.50;;;;;;;11.10;58.90;97942.69;5035247;28;20727;-70
2023/12/27 05:52:50;;;;;;;6.57;3.10;;;;;;;11.09;58.75;97943.66;5037600;28;20207;-71
2023/12/27 05:55:16;;;;;;;3.60;3.20;;;;;;;11.16;58.34;97934.28;5030749;28;20184;-71
2023/12/27 05:57:41;;;;;;;5.63;3.20;;;;;;;11.18;58.48;97927.13;5023691;28;20191;-71
2023/12/27 06:00:07;;;;;;;7.77;3.30;;;;;;;11.00;58.56;97920.88;5032549;28;20210;-70
2023/12/27 06:02:33;;;;;;;6.40;3.27;;;;;;;10.91;58.58;97917.28;5025752;28;20204;-70
2023/12/27 06:04:59;;;;;;;4.57;2.73;;;;;;;10.95;58.68;97925.72;5037226;28;20440;-70
2023/12/27 06:07:25;;;;;;;5.47;3.60;;;;;;;10.97;58.68;97918.53;5042291;28;20234;-71
2023/12/27 06:09:51;;;;;;;3.93;2.90;;;;;;;10.93;58.79;97925.84;5040137;28;20450;-70
2023/12/27 06:12:16;;;;;;;3.67;3.20;;;;;;;10.89;59.04;97929.72;5033133;28;20328;-70
2023/12/27 06:14:42;;;;;;;5.20;3.33;;;;;;;10.94;58.71;97935.38;5031464;28;20192;-71
2023/12/27 06:17:07;;;;;;;5.50;3.23;;;;;;;10.86;59.05;97935.25;5035478;28;20962;-72
2023/12/27 06:19:35;;;;;;;5.77;3.40;;;;;;;10.76;59.27;97922.09;5035601;28;20188;-70
2023/12/27 06:22:00;;;;;;;6.17;3.37;;;;;;;10.68;59.34;97922.78;5036841;28;20298;-72
2023/12/27 06:24:26;;;;;;;4.67;3.80;;;;;;;10.65;59.08;97911.75;5034653;28;20886;-70
2023/12/27 06:26:51;;;;;;;7.27;3.47;;;;;;;10.66;59.07;97902.91;5038406;28;20269;-70
2023/12/27 06:29:17;;;;;;;8.63;4.50;;;;;;;10.65;59.33;97902.06;5036748;28;20183;-70
2023/12/27 06:31:42;;;;;;;5.97;4.00;;;;;;;10.63;59.35;97893.53;5042510;28;20578;-71
2023/12/27 06:34:07;;;;;;;8.57;4.23;;;;;;;10.71;59.50;97890.25;5039509;28;20707;-71
2023/12/27 06:36:33;;;;;;;7.33;4.17;;;;;;;10.77;59.22;97889.69;5040029;28;20653;-70
2023/12/27 06:38:58;;;;;;;6.13;3.90;;;;;;;10.77;58.95;97892.31;5030635;28;20184;-71
2023/12/27 06:41:24;;;;;;;6.07;3.87;;;;;;;10.77;58.79;97888.88;5039199;28;20222;-70
2023/12/27 06:43:49;;;;;;;6.67;3.67;;;;;;;10.80;58.61;97899.91;5036611;28;20528;-71
2023/12/27 06:46:15;;;;;;;3.67;3.00;;;;;;;10.62;58.86;97899.75;5041569;28;20648;-71
2023/12/27 06:48:40;;;;;;;6.07;4.00;;;;;;;10.60;59.10;97905.09;5041113;28;21579;-72
2023/12/27 06:51:06;;;;;;;6.43;4.03;;;;;;;10.56;58.90;97902.88;5027218;28;20183;-70
2023/12/27 06:53:33;;;;;;;7.37;3.17;;;;;;;10.50;59.12;97906.88;5029886;28;20587;-71
2023/12/27 06:56:00;;;;;;;6.73;3.07;;;;;;;10.51;59.38;97900.69;5035481;28;20430;-71
2023/12/27 06:58:26;;;;;;;5.10;3.47;;;;;;;10.45;59.52;97899.44;5032189;28;20463;-71
2023/12/27 07:00:51;;;;;;;6.10;4.10;;;;;;;10.39;59.75;97896.50;5037824;28;20430;-70
2023/12/27 07:03:17;;;;;;;7.53;4.10;;;;;;;10.30;59.69;97896.34;5040284;28;20262;-70
2023/12/27 07:05:42;;;;;;;5.57;4.97;;;;;;;10.33;60.16;97897.03;5037641;28;20197;-70
2023/12/27 07:08:08;;;;;;;6.50;4.10;;;;;;;10.40;59.85;97895.56;5038357;28;20245;-71
2023/12/27 07:10:33;;;;;;;6.70;4.20;;;;;;;10.44;59.70;97902.19;5036233;28;20572;-70
2023/12/27 07:12:58;;;;;;;6.80;4.20;;;;;;;10.57;60.12;97908.00;5039289;28;20211;-71
2023/12/27 07:15:24;;;;;;;9.03;4.60;;;;;;;10.65;59.67;97917.00;5034624;28;20203;-70
2023/12/27 07:17:50;;;;;;;8.50;4.07;;;;;;;10.63;59.59;97905.81;5026664;28;20179;-70
2023/12/27 07:20:16;;;;;;;7.77;4.27;;;;;;;10.64;59.64;97902.22;5026269;28;20194;-71
2023/12/27 07:22:41;;;;;;;6.73;4.30;;;;;;;10.49;59.56;97913.09;5022580;28;21184;-70
2023/12/27 07:25:07;;;;;;;11.20;4.67;;;;;;;10.46;59.75;97905.47;5024241;28;20250;-70
2023/12/27 07:27:32;;;;;;;7.97;4.20;;;;;;;10.21;60.80;97902.34;5032708;28;20753;-71
2023/12/27 07:29:58;;;;;;;5.90;3.80;;;;;;;10.22;60.43;97897.94;5042461;28;20187;-71
2023/12/27 07:32:23;;;;;;;9.10;4.30;;;;;;;10.34;60.06;97906.53;5024409;28;20281;-72
2023/12/27 07:34:49;;;;;;;9.33;4.90;;;;;;;10.40;60.09;97906.03;5026977;28;20234;-72
2023/12/27 07:37:14;;;;;;;7.60;4.77;;;;;;;10.50;59.96;97906.88;5030567;28;20192;-69
2023/12/27 07:39:40;;;;;;;8.00;4.87;;;;;;;10.58;59.83;97916.69;5023046;28;20195;-71
2023/12/27 07:42:06;;;;;;;6.00;4.50;;;;;;;10.52;59.74;97910.19;5023060;28;20203;-70
2023/12/27 07:44:31;;;;;;;7.20;3.70;;;;;;;10.39;60.05;97904.38;5018641;28;20513;-72
2023/12/27 07:46:56;;;;;;;4.33;3.80;;;;;;;10.46;59.75;97915.97;5023638;28;20283;-71
2023/12/27 07:49:23;;;;;;;6.70;3.50;;;;;;;10.56;60.22;97911.59;5035345;28;20245;-73
2023/12/27 07:51:49;;;;;;;5.00;4.20;;;;;;;10.52;60.08;97914.63;5033723;28;20199;-71
2023/12/27 07:54:15;;;;;;;10.00;3.77;;;;;;;10.46;60.44;97910.72;5031756;28;20420;-71
2023/12/27 07:56:40;;;;;;;7.40;3.87;;;;;;;10.60;60.34;97922.63;5035131;28;20213;-71
2023/12/27 07:59:06;;;;;;;8.63;3.87;;;;;;;10.62;60.11;97935.59;5035747;28;20179;-70
2023/12/27 08:01:31;;;;;;;8.03;4.43;;;;;;;10.66;59.98;97935.19;5030473;28;20234;-70
2023/12/27 08:03:58;;;;;;;5.53;3.40;;;;;;;10.63;59.56;97926.78;5019233;28;20662;-71
2023/12/27 08:06:23;;;;;;;7.17;4.53;;;;;;;10.64;59.84;97923.19;5029806;28;20188;-71
2023/12/27 08:08:48;;;;;;;6.83;4.50;;;;;;;10.72;59.67;97926.81;5013861;28;20427;-72
2023/12/27 08:11:14;;;;;;;9.03;4.37;;;;;;;10.76;59.58;97919.47;5026122;28;21023;-71
2023/12/27 08:13:39;;;;;;;7.43;4.20;;;;;;;10.71;59.53;97919.09;5033764;28;20284;-71
2023/12/27 08:16:05;;;;;;;5.87;4.20;;;;;;;10.79;59.69;97932.34;5025364;28;20298;-72
2023/12/27 08:18:31;;;;;;;6.07;3.87;;;;;;;10.84;59.46;97930.09;5043301;28;20194;-71
2023/12/27 08:20:57;;;;;;;7.57;3.90;;;;;;;10.88;59.88;97925.44;5049329;28;20436;-71
2023/12/27 08:23:23;;;;;;;8.43;4.07;;;;;;;10.80;59.37;97923.50;5038300;28;20187;-73
2023/12/27 08:25:48;;;;;;;8.37;4.90;;;;;;;10.73;59.60;97925.00;5046077;28;20684;-71
2023/12/27 08:28:14;;;;;;;5.77;4.37;;;;;;;10.70;59.36;97913.00;5034642;28;20188;-70
2023/12/27 08:30:44;;;;;;;6.73;4.40;;;;;;;10.73;59.28;97930.22;5044588;28;20187;-70
2023/12/27 08:33:09;;;;;;;8.20;3.87;;;;;;;10.79;59.56;97939.34;5043582;28;20206;-71
2023/12/27 08:35:35;;;;;;;5.70;3.97;;;;;;;10.83;59.54;97938.97;5036589;28;20521;-71
2023/12/27 08:38:01;;;;;;;6.60;4.13;;;;;;;10.86;59.66;97936.06;5054644;28;20749;-71
2023/12/27 08:40:27;;;;;;;6.50;4.33;;;;;;;10.89;59.57;97933.16;5041403;28;20433;-71
2023/12/27 08:42:54;;;;;;;4.70;3.93;;;;;;;10.93;59.26;97930.28;5045540;28;20475;-73
2023/12/27 08:45:19;;;;;;;6.83;4.20;;;;;;;11.02;59.33;97924.19;5036625;28;20198;-71
2023/12/27 08:47:45;;;;;;;7.27;4.43;;;;;;;11.08;59.15;97915.78;5044684;28;20421;-71
2023/12/27 08:50:10;;;;;;;7.10;4.00;;;;;;;11.11;59.18;97909.44;5042865;28;20249;-71
2023/12/27 08:52:37;;;;;;;6.43;3.73;;;;;;;11.17;58.87;97904.47;5028934;28;20221;-71
2023/12/27 08:55:05;;;;;;;7.10;3.97;;;;;;;11.10;58.67;97898.09;5044741;28;20567;-71
2023/12/27 08:57:30;;;;;;;7.90;3.70;;;;;;;11.09;59.16;97895.63;5044265;28;20521;-72
2023/12/27 08:59:56;;;;;;;5.83;3.40;;;;;;;11.14;58.72;97889.00;5048816;28;20528;-71
2023/12/27 09:02:23;;;;;;;5.43;3.50;;;;;;;11.16;57.82;97887.06;5058366;28;20286;-71
2023/12/27 09:04:48;;;;;;;3.97;3.10;;;;;;;11.22;57.93;97889.13;5050177;28;20277;-73
2023/12/27 09:07:14;;;;;;;6.23;3.20;;;;;;;11.31;57.73;97873.53;5052887;28;21156;-70
2023/12/27 09:09:40;;;;;;;6.40;3.53;;;;;;;11.58;57.62;97864.88;5045744;28;20589;-71
2023/12/27 09:12:06;;;;;;;6.23;3.30;;;;;;;11.79;57.02;97862.06;5048142;28;20207;-71
2023/12/27 09:14:32;;;;;;;3.90;3.27;;;;;;;11.73;56.59;97878.38;5056651;28;20428;-71
2023/12/27 09:16:57;;;;;;;8.60;3.70;;;;;;;11.92;56.14;97874.03;5042452;28;20820;-71
2023/12/27 09:19:23;;;;;;;6.10;3.40;;;;;;;12.20;55.09;97869.66;5056706;28;20759;-71
2023/12/27 09:21:48;;;;;;;8.17;3.30;;;;;;;12.48;54.08;97871.41;5058544;28;20722;-71
2023/12/27 09:24:14;;;;;;;7.33;3.53;;;;;;;12.70;54.23;97871.00;5048624;28;20270;-70
2023/12/27 09:26:39;;;;;;;6.07;3.67;;;;;;;12.93;53.71;97873.19;5060561;28;20296;-72
2023/12/27 09:29:05;;;;;;;5.03;3.40;;;;;;;13.22;53.48;97869.50;5052446;28;20197;-72
2023/12/27 09:31:31;;;;;;;5.97;3.60;;;;;;;13.56;52.53;97860.84;5028654;28;20219;-71
2023/12/27 09:33:59;;;;;;;5.03;3.40;;;;;;;13.91;51.01;97859.06;5038306;28;20188;-71
2023/12/27 09:36:25;;;;;;;7.13;4.00;;;;;;;14.37;50.54;97847.34;5035615;28;20715;-71
2023/12/27 09:38:51;;;;;;;10.10;3.80;;;;;;;14.85;49.09;97832.66;5048703;28;20484;-71
2023/12/27 09:41:16;;;;;;;5.13;3.97;;;;;;;15.24;48.27;97832.97;5042057;28;20462;-71
2023/12/27 09:43:42;;;;;;;5.33;3.70;;;;;;;15.64;46.71;97839.16;5047606;28;20183;-71
2023/12/27 09:46:18;;;;;;;7.00;3.70;;;;;;;16.20;46.53;97846.25;5026737;28;20178;-71
2023/12/27 09:48:44;;;;;;;7.73;3.43;;;;;;;16.50;44.16;97860.47;5051187;28;20417;-70
2023/12/27 09:51:13;;;;;;;5.50;3.53;;;;;;;16.59;42.68;97845.38;5049021;28;20768;-72
2023/12/27 09:53:40;;;;;;;6.33;2.73;;;;;;;16.93;42.03;97849.44;5049513;28;20541;-71
2023/12/27 09:56:07;;;;;;;9.37;3.10;;;;;;;17.33;40.16;97831.59;5053018;28;20424;-72
2023/12/27 09:58:32;;;;;;;4.47;2.80;;;;;;;17.39;38.73;97837.19;5047259;28;20818;-70
2023/12/27 10:01:01;;;;;;;7.83;2.90;;;;;;;17.23;38.93;97844.28;5029276;28;20430;-71
2023/12/27 10:03:34;;;;;;;9.80;2.73;;;;;;;17.50;37.49;97850.00;5039725;28;20210;-71
2023/12/27 10:06:23;;;;;;;3.90;2.30;;;;;;;17.83;36.13;97838.22;5041739;28;20906;-71
2023/12/27 10:08:49;;;;;;;7.43;2.27;;;;;;;18.17;35.69;97824.38;5038957;28;20981;-70
2023/12/27 10:11:17;;;;;;;3.90;2.57;;;;;;;18.14;35.43;97824.78;5034183;28;20429;-71
2023/12/27 10:13:43;;;;;;;3.00;2.20;;;;;;;18.34;34.91;97824.16;5041540;28;20567;-72
2023/12/27 10:16:08;;;;;;;4.53;2.50;;;;;;;18.51;34.97;97825.59;5029082;28;20598;-72
2023/12/27 10:18:33;;;;;;;3.10;2.10;;;;;;;18.36;34.81;97827.47;5048446;28;20289;-71
2023/12/27 10:21:00;;;;;;;4.27;2.50;;;;;;;17.63;35.66;97810.44;5042900;28;20883;-71
2023/12/27 10:23:26;;;;;;;3.70;2.20;;;;;;;17.10;36.50;97785.81;5049124;28;20175;-72
2023/12/27 10:25:52;;;;;;;4.70;2.57;;;;;;;16.84;37.48;97776.41;5041482;28;20545;-72
2023/12/27 10:28:23;;;;;;;6.53;2.63;;;;;;;16.53;37.56;97772.00;5027733;28;20274;-71
2023/12/27 10:30:51;;;;;;;3.70;2.70;;;;;;;16.19;38.45;97771.38;5041034;28;20437;-71
2023/12/27 10:33:17;;;;;;;3.73;2.33;;;;;;;16.02;38.44;97762.72;5049532;28;20516;-71
2023/12/27 10:35:42;;;;;;;4.73;2.50;;;;;;;15.95;38.09;97765.22;5038223;28;20813;-72
2023/12/27 10:38:08;;;;;;;5.20;2.87;;;;;;;16.46;38.23;97779.81;5033804;28;20432;-72
2023/12/27 10:40:34;;;;;;;4.23;1.97;;;;;;;16.93;37.80;97779.81;5042342;28;20195;-71
2023/12/27 10:42:59;;;;;;;2.47;2.27;;;;;;;17.45;36.65;97778.97;5032506;28;20250;-72
2023/12/27 10:45:25;;;;;;;3.60;2.37;;;;;;;17.94;34.34;97776.75;5038845;28;20856;-71
2023/12/27 10:47:59;;;;;;;5.50;3.50;;;;;;;18.15;33.39;97775.19;5040645;28;20195;-72
2023/12/27 10:50:26;;;;;;;5.60;2.50;;;;;;;18.36;32.40;97771.75;5026818;28;20241;-72
2023/12/27 10:53:06;;;;;;;3.77;2.10;;;;;;;18.86;31.61;97756.69;5032954;28;20466;-72
2023/12/27 10:55:32;;;;;;;2.30;2.10;;;;;;;19.44;30.92;97739.72;5031521;28;20483;-71
2023/12/27 10:57:59;;;;;;;2.23;1.80;;;;;;;19.48;30.35;97727.69;5055963;28;20447;-72
2023/12/27 11:00:25;;;;;;;3.57;2.13;;;;;;;19.22;30.15;97728.34;5035765;28;20438;-71
2023/12/27 11:02:50;;;;;;;2.60;1.87;;;;;;;19.16;30.27;97732.59;5024341;28;20447;-71
2023/12/27 11:05:19;;;;;;;2.63;2.10;;;;;;;19.20;29.87;97722.44;5028226;28;20639;-71
2023/12/27 11:07:45;;;;;;;3.77;1.93;;;;;;;19.17;29.52;97717.50;5038385;28;20191;-73
2023/12/27 11:10:12;;;;;;;3.83;2.40;;;;;;;18.82;30.64;97710.28;5027270;28;20428;-72
2023/12/27 11:12:38;;;;;;;2.20;1.80;;;;;;;18.39;30.32;97715.66;5018408;28;20477;-71
2023/12/27 11:15:06;;;;;;;4.20;2.13;;;;;;;18.02;30.75;97715.69;5026135;28;20965;-70
2023/12/27 11:17:33;;;;;;;2.10;1.73;;;;;;;18.26;30.78;97711.88;5040192;28;20429;-71
2023/12/27 11:19:58;;;;;;;3.80;1.97;;;;;;;18.69;30.24;97704.88;5046558;28;20471;-73
2023/12/27 11:22:24;;;;;;;2.40;1.87;;;;;;;18.79;29.88;97701.88;5010579;28;20507;-71
2023/12/27 11:24:49;;;;;;;2.20;1.50;;;;;;;18.99;29.89;97705.53;5040605;28;20192;-72
2023/12/27 11:27:18;;;;;;;5.20;2.10;;;;;;;19.23;29.38;97705.28;5069850;28;20189;-72